Ruble, Iowa
Current Conditions -  °F | °C
As of 12:35 PM on Thursday 23 Oct 2014 (Local Time) from KLRJ Reporting Station
Clear Clear  
Wind Chill: 64°   Ceiling: Unl
Heat Index: 64°   Visibility: 10mi
Dew Point: 57°   Wind: 7mph
Humidity: 77%   Direction: 200°SSW
Pressure: 30.04"   Gusts: NA
Location:  42.8596°N, 96.4482°W
Report Text: KLRJ 231735Z AUTO 20006KT 10SM CLR 18/14 A3004 RMK AO2
Loading
Personal Weather Stations






























Interactive Weather Map
Tropical Storm Tracking
New forecast layout! Learn more

10-Day Weather Forecast

Advertisements
Track Severe Weather on mobile